Time;durP1;ratioP1;P1;durP2;ratioP2;P2;SDS_P1;SDS_P2;PMS_P1;PMS_P2;Temp;Humidity;BMP_temperature;BMP_pressure;BME280_temperature;BME280_humidity;BME280_pressure;Samples;Min_cycle;Max_cycle;Signal;HPM_P1;HPM_P2
2022/07/09 00:00:10;;;;;;;7.32;2.10;;;;;;;16.53;100.00;99436.81;4426829;32;20030;-74
2022/07/09 00:02:57;;;;;;;4.68;2.72;;;;;;;16.80;100.00;99479.06;4419441;32;20051;-74
2022/07/09 00:05:23;;;;;;;10.65;2.17;;;;;;;16.61;100.00;99487.88;4418835;32;20062;-74
2022/07/09 00:07:51;;;;;;;4.75;2.10;;;;;;;16.65;100.00;99479.97;4419991;32;20075;-74
2022/07/09 00:10:17;;;;;;;19.17;2.28;;;;;;;16.47;100.00;99471.34;4418696;32;20375;-74
2022/07/09 00:12:43;;;;;;;6.30;2.40;;;;;;;16.42;100.00;99465.09;4418571;32;20391;-74
2022/07/09 00:15:10;;;;;;;6.40;2.37;;;;;;;16.55;100.00;99480.84;4419125;32;20395;-73
2022/07/09 00:17:36;;;;;;;7.40;2.30;;;;;;;16.40;100.00;99467.28;4419255;32;20034;-74
2022/07/09 00:20:04;;;;;;;3.95;1.42;;;;;;;16.16;100.00;99441.56;4417729;32;20056;-74
2022/07/09 00:22:32;;;;;;;10.75;2.92;;;;;;;16.26;100.00;99470.62;4419131;32;20035;-74
2022/07/09 00:24:59;;;;;;;7.47;2.70;;;;;;;16.15;100.00;99450.00;4418760;32;20035;-73
2022/07/09 00:27:26;;;;;;;11.12;2.90;;;;;;;16.37;100.00;99495.03;4424290;32;20075;-73
2022/07/09 00:29:52;;;;;;;6.70;3.25;;;;;;;16.28;100.00;99494.78;4430889;32;20100;-75
2022/07/09 00:32:19;;;;;;;7.53;3.45;;;;;;;16.13;100.00;99495.63;4418898;32;20091;-73
2022/07/09 00:34:46;;;;;;;5.95;1.95;;;;;;;16.04;100.00;99486.44;4431032;32;20089;-72
2022/07/09 00:37:13;;;;;;;16.15;4.93;;;;;;;16.00;100.00;99485.34;4430264;32;20105;-74
2022/07/09 00:39:39;;;;;;;14.20;3.17;;;;;;;16.00;100.00;99479.91;4431105;32;20101;-73
2022/07/09 00:42:07;;;;;;;6.20;3.15;;;;;;;16.06;100.00;99476.09;4430679;32;20442;-74
2022/07/09 00:44:34;;;;;;;7.90;3.80;;;;;;;16.09;100.00;99486.41;4431661;32;20102;-75
2022/07/09 00:47:01;;;;;;;5.25;2.83;;;;;;;15.86;100.00;99453.34;4420054;32;20072;-73
2022/07/09 00:49:30;;;;;;;6.37;2.95;;;;;;;16.00;100.00;99496.19;4419003;32;20046;-73
2022/07/09 00:51:58;;;;;;;6.68;2.30;;;;;;;15.94;100.00;99488.06;4418348;32;20123;-73
2022/07/09 00:54:25;;;;;;;13.10;3.60;;;;;;;15.57;100.00;99437.59;4418611;32;20532;-74
2022/07/09 00:56:53;;;;;;;8.75;4.10;;;;;;;15.67;100.00;99444.06;4418688;32;20026;-74
2022/07/09 00:59:21;;;;;;;10.00;2.53;;;;;;;15.88;100.00;99489.16;4418339;32;20046;-74
2022/07/09 01:01:51;;;;;;;6.10;2.92;;;;;;;15.77;100.00;99474.78;4417591;32;20070;-74
2022/07/09 01:04:23;;;;;;;13.13;2.53;;;;;;;15.91;100.00;99494.03;4417911;32;20050;-74
2022/07/09 01:06:50;;;;;;;5.30;2.92;;;;;;;15.89;100.00;99485.38;4417510;32;20053;-74
2022/07/09 01:09:16;;;;;;;6.07;2.37;;;;;;;15.87;100.00;99471.22;4418345;32;20030;-74
2022/07/09 01:11:43;;;;;;;5.00;2.08;;;;;;;15.52;100.00;99459.28;4404825;32;20030;-74
2022/07/09 01:14:09;;;;;;;3.35;1.90;;;;;;;15.55;100.00;99496.72;4404570;32;20064;-73
2022/07/09 01:16:39;;;;;;;4.97;2.33;;;;;;;15.58;100.00;99485.34;4417282;32;20079;-74
2022/07/09 01:19:08;;;;;;;9.07;2.58;;;;;;;15.53;100.00;99489.97;4418132;32;20046;-74
2022/07/09 01:21:35;;;;;;;4.72;2.87;;;;;;;15.55;100.00;99458.75;4417545;32;20085;-74
2022/07/09 01:24:02;;;;;;;5.30;3.25;;;;;;;15.40;100.00;99473.13;4418418;32;20042;-75
2022/07/09 01:26:29;;;;;;;3.62;2.45;;;;;;;15.37;100.00;99479.09;4417692;32;20064;-75
2022/07/09 01:28:55;;;;;;;5.97;2.12;;;;;;;15.55;100.00;99472.31;4418363;32;20414;-72
2022/07/09 01:31:21;;;;;;;5.57;2.30;;;;;;;15.23;100.00;99456.31;4417950;32;20042;-72
2022/07/09 01:33:48;;;;;;;7.70;2.42;;;;;;;15.48;100.00;99474.50;4417270;32;20436;-73
2022/07/09 01:36:15;;;;;;;4.18;2.00;;;;;;;15.37;100.00;99429.47;4418137;32;20466;-72
2022/07/09 01:38:41;;;;;;;7.28;2.83;;;;;;;15.61;100.00;99468.50;4404524;32;20060;-73
2022/07/09 01:41:07;;;;;;;5.50;2.05;;;;;;;15.42;100.00;99437.59;4415885;32;20060;-74
2022/07/09 01:43:34;;;;;;;2.30;2.00;;;;;;;15.53;100.00;99460.91;4428382;32;20075;-74
2022/07/09 01:46:00;;;;;;;5.03;2.83;;;;;;;15.41;100.00;99425.09;4432728;32;20037;-75
2022/07/09 01:48:29;;;;;;;7.60;3.60;;;;;;;15.46;100.00;99454.97;4433324;32;20099;-73
2022/07/09 01:50:58;;;;;;;10.40;3.85;;;;;;;15.07;100.00;99425.62;4433556;32;20068;-74
2022/07/09 01:53:24;;;;;;;6.43;3.28;;;;;;;15.07;100.00;99422.91;4418607;32;20081;-74
2022/07/09 01:55:51;;;;;;;11.48;4.37;;;;;;;15.40;100.00;99461.47;4433145;32;20076;-74
2022/07/09 01:58:18;;;;;;;4.78;3.75;;;;;;;15.18;100.00;99421.84;4433192;32;20057;-74
2022/07/09 02:00:44;;;;;;;7.57;3.22;;;;;;;15.07;100.00;99414.78;4431805;32;20079;-73
2022/07/09 02:03:11;;;;;;;8.45;4.12;;;;;;;15.45;100.00;99447.91;4431244;32;20034;-74
2022/07/09 02:05:37;;;;;;;5.78;3.17;;;;;;;15.48;100.00;99447.34;4429147;32;20033;-75
2022/07/09 02:08:03;;;;;;;11.18;3.70;;;;;;;15.50;100.00;99434.31;4432636;32;20465;-73
2022/07/09 02:10:30;;;;;;;5.90;3.17;;;;;;;15.71;100.00;99442.44;4433098;32;20286;-74
2022/07/09 02:13:03;;;;;;;5.50;3.35;;;;;;;15.52;100.00;99399.56;4418973;32;20045;-74
2022/07/09 02:15:30;;;;;;;5.18;3.12;;;;;;;15.79;100.00;99444.63;4432524;32;20050;-74
2022/07/09 02:17:56;;;;;;;4.45;2.90;;;;;;;15.41;100.00;99404.22;4418766;32;20068;-73
2022/07/09 02:20:22;;;;;;;5.80;2.75;;;;;;;15.49;100.00;99443.53;4432973;32;20063;-73
2022/07/09 02:22:49;;;;;;;6.78;2.85;;;;;;;15.48;100.00;99441.12;4434300;32;20353;-74
2022/07/09 02:25:15;;;;;;;5.62;2.70;;;;;;;15.55;100.00;99442.47;4432303;32;20085;-75
2022/07/09 02:27:42;;;;;;;8.80;2.92;;;;;;;15.52;100.00;99444.91;4417421;32;20023;-75
2022/07/09 02:30:14;;;;;;;8.25;2.65;;;;;;;15.30;100.00;99404.47;4432665;32;20058;-74
2022/07/09 02:32:41;;;;;;;3.12;2.83;;;;;;;15.54;100.00;99446.28;4432689;32;20058;-75
2022/07/09 02:35:08;;;;;;;6.87;2.53;;;;;;;15.47;100.00;99402.31;4427002;32;20436;-75
2022/07/09 02:37:34;;;;;;;5.28;2.85;;;;;;;15.66;100.00;99447.91;4404129;32;20026;-74
2022/07/09 02:40:00;;;;;;;4.15;2.80;;;;;;;15.49;100.00;99440.81;4403661;32;20076;-74
2022/07/09 02:42:27;;;;;;;6.43;3.25;;;;;;;15.53;100.00;99443.84;4416683;32;20047;-74
2022/07/09 02:44:53;;;;;;;14.02;2.92;;;;;;;15.44;100.00;99430.81;4416426;32;20411;-75
2022/07/09 02:47:19;;;;;;;3.37;2.17;;;;;;;15.49;100.00;99432.69;4404954;32;20038;-75
2022/07/09 02:49:46;;;;;;;4.90;3.37;;;;;;;15.65;100.00;99429.97;4419410;32;20038;-75
2022/07/09 02:52:12;;;;;;;9.32;2.40;;;;;;;15.52;100.00;99394.16;4419694;32;20113;-75
2022/07/09 02:54:39;;;;;;;6.15;3.15;;;;;;;15.49;100.00;99421.84;4419329;32;20057;-74
2022/07/09 02:57:05;;;;;;;4.95;2.62;;;;;;;15.50;100.00;99434.31;4420467;32;20039;-74
2022/07/09 02:59:31;;;;;;;4.55;3.62;;;;;;;15.33;100.00;99390.38;4420287;32;20035;-74
2022/07/09 03:01:58;;;;;;;7.10;3.33;;;;;;;15.50;100.00;99422.66;4420282;32;20042;-74
2022/07/09 03:04:24;;;;;;;4.37;3.72;;;;;;;15.70;100.00;99432.66;4420317;32;20428;-74
2022/07/09 03:06:50;;;;;;;6.32;3.30;;;;;;;15.54;100.00;99392.00;4418479;32;20187;-75
2022/07/09 03:09:17;;;;;;;4.90;2.60;;;;;;;15.75;100.00;99414.50;4418982;32;20399;-74
2022/07/09 03:11:43;;;;;;;4.43;2.78;;;;;;;15.58;100.00;99422.91;4419509;32;20080;-74
2022/07/09 03:14:09;;;;;;;7.60;3.10;;;;;;;15.72;100.00;99414.22;4420198;32;20064;-74
2022/07/09 03:16:36;;;;;;;9.20;3.12;;;;;;;15.88;100.00;99417.75;4419593;32;20287;-74
2022/07/09 03:19:02;;;;;;;6.68;3.25;;;;;;;15.60;100.00;99380.06;4420381;32;20054;-74
2022/07/09 03:21:28;;;;;;;7.15;2.65;;;;;;;15.78;100.00;99416.69;4420411;32;20023;-74
2022/07/09 03:23:55;;;;;;;5.35;2.83;;;;;;;15.54;100.00;99412.88;4420070;32;20458;-74
2022/07/09 03:26:21;;;;;;;5.95;2.83;;;;;;;15.56;100.00;99400.66;4420014;32;20046;-73
2022/07/09 03:28:47;;;;;;;8.15;2.72;;;;;;;15.47;100.00;99413.16;4419366;32;20195;-74
2022/07/09 03:31:14;;;;;;;6.35;2.37;;;;;;;15.54;100.00;99407.44;4419378;32;20065;-74
2022/07/09 03:33:40;;;;;;;13.13;3.05;;;;;;;15.52;100.00;99377.06;4417332;32;20042;-74
2022/07/09 03:36:07;;;;;;;5.37;2.75;;;;;;;15.28;100.00;99322.56;4419713;32;20068;-74
2022/07/09 03:38:34;;;;;;;6.12;2.83;;;;;;;15.46;100.00;99403.41;4418487;32;20790;-75
2022/07/09 03:41:00;;;;;;;10.27;3.40;;;;;;;15.38;100.00;99414.78;4405123;32;20356;-75
2022/07/09 03:43:26;;;;;;;12.20;3.12;;;;;;;15.64;100.00;99412.06;4419780;32;20027;-75
2022/07/09 03:45:54;;;;;;;11.32;3.80;;;;;;;15.22;100.00;99376.00;4419285;32;20041;-75
2022/07/09 03:48:20;;;;;;;8.23;3.62;;;;;;;15.20;100.00;99365.41;4419679;32;20034;-74
2022/07/09 03:50:47;;;;;;;11.07;4.45;;;;;;;15.15;100.00;99362.72;4419641;32;20395;-74
2022/07/09 03:53:13;;;;;;;5.75;3.40;;;;;;;15.37;100.00;99372.47;4417695;32;20058;-74
2022/07/09 03:55:40;;;;;;;10.50;4.07;;;;;;;15.35;100.00;99371.91;4418481;32;20080;-75
2022/07/09 03:58:06;;;;;;;5.10;3.75;;;;;;;15.66;100.00;99399.84;4418430;32;20314;-74
2022/07/09 04:00:33;;;;;;;7.40;3.75;;;;;;;15.36;100.00;99352.66;4418628;32;20084;-74
2022/07/09 04:02:59;;;;;;;5.35;3.90;;;;;;;15.43;100.00;99364.06;4419282;32;20073;-74
2022/07/09 04:05:26;;;;;;;6.55;3.83;;;;;;;15.73;100.00;99396.84;4403628;32;20060;-74
2022/07/09 04:07:52;;;;;;;6.90;3.40;;;;;;;15.48;100.00;99360.53;4405712;32;20080;-74
2022/07/09 04:10:19;;;;;;;7.43;4.03;;;;;;;15.59;100.00;99389.28;4418995;32;20056;-74
2022/07/09 04:12:45;;;;;;;7.93;4.12;;;;;;;15.73;100.00;99389.53;4419441;32;20419;-74
2022/07/09 04:15:11;;;;;;;3.87;3.20;;;;;;;15.76;100.00;99382.72;4404652;32;20042;-74
2022/07/09 04:17:38;;;;;;;8.13;3.55;;;;;;;15.54;100.00;99354.00;4419232;32;20057;-75
2022/07/09 04:20:05;;;;;;;6.62;3.28;;;;;;;15.89;100.00;99381.34;4417575;32;20034;-75
2022/07/09 04:22:31;;;;;;;6.22;3.72;;;;;;;15.64;100.00;99333.38;4418764;32;20182;-74
2022/07/09 04:24:57;;;;;;;7.10;3.60;;;;;;;15.86;100.00;99381.91;4419028;32;20333;-74
2022/07/09 04:27:24;;;;;;;5.82;3.53;;;;;;;15.87;100.00;99384.34;4419387;32;20027;-74
2022/07/09 04:29:50;;;;;;;5.15;3.92;;;;;;;15.97;100.00;99380.78;4418641;32;20069;-74
2022/07/09 04:32:16;;;;;;;9.55;3.15;;;;;;;16.07;100.00;99379.97;4418721;32;20322;-74
2022/07/09 04:34:43;;;;;;;5.05;3.70;;;;;;;15.67;100.00;99305.63;4404193;32;20326;-75
2022/07/09 04:37:09;;;;;;;5.60;3.60;;;;;;;15.89;100.00;99332.47;4417376;32;20058;-73
2022/07/09 04:39:35;;;;;;;6.20;3.05;;;;;;;15.80;100.00;99329.53;4405589;32;20070;-73
2022/07/09 04:42:02;;;;;;;6.00;2.97;;;;;;;15.75;100.00;99381.09;4417706;32;20038;-74
2022/07/09 04:44:28;;;;;;;9.20;3.45;;;;;;;16.10;100.00;99371.25;4417270;32;20072;-74
2022/07/09 04:46:55;;;;;;;3.97;2.78;;;;;;;16.16;100.00;99361.97;4418785;32;20791;-73
2022/07/09 04:49:24;;;;;;;12.13;3.08;;;;;;;16.12;100.00;99352.75;4417452;32;20104;-74
2022/07/09 04:51:50;;;;;;;8.13;2.37;;;;;;;16.29;100.00;99357.81;4446674;32;20456;-74
2022/07/09 04:54:17;;;;;;;3.53;2.70;;;;;;;16.01;100.00;99362.06;4449436;32;20071;-73
2022/07/09 04:56:43;;;;;;;4.70;2.67;;;;;;;16.19;100.00;99371.47;4449012;32;20059;-73
2022/07/09 04:59:09;;;;;;;8.40;2.30;;;;;;;16.26;100.00;99336.69;4448792;32;20068;-73
2022/07/09 05:01:36;;;;;;;8.27;2.30;;;;;;;16.33;100.00;99334.44;4434976;32;20035;-74
2022/07/09 05:04:02;;;;;;;4.12;2.45;;;;;;;16.47;100.00;99340.09;4449015;32;20051;-75
2022/07/09 05:06:28;;;;;;;6.03;2.95;;;;;;;16.58;100.00;99371.56;4444603;32;20072;-74
2022/07/09 05:08:55;;;;;;;3.33;2.42;;;;;;;16.20;100.00;99340.50;4448025;32;20145;-74
2022/07/09 05:11:21;;;;;;;3.47;2.20;;;;;;;16.45;100.00;99361.28;4434519;32;20055;-73
2022/07/09 05:13:48;;;;;;;7.70;2.42;;;;;;;16.56;100.00;99357.44;4428707;32;20065;-73
2022/07/09 05:16:14;;;;;;;3.47;1.77;;;;;;;16.58;100.00;99371.56;4418090;32;20349;-73
2022/07/09 05:18:41;;;;;;;10.85;2.33;;;;;;;16.67;100.00;99367.16;4429592;32;20038;-74
2022/07/09 05:21:07;;;;;;;2.03;1.83;;;;;;;16.65;100.00;99350.28;4433305;32;20467;-77
2022/07/09 05:23:34;;;;;;;1.65;1.42;;;;;;;16.17;100.00;99317.41;4433569;32;20055;-75
2022/07/09 05:26:00;;;;;;;1.75;1.60;;;;;;;16.56;100.00;99334.84;4420400;32;20034;-75
2022/07/09 05:28:26;;;;;;;6.47;2.37;;;;;;;16.84;100.00;99357.78;4417327;32;20435;-76
2022/07/09 05:30:53;;;;;;;6.55;1.83;;;;;;;16.93;100.00;99356.13;4430529;32;20059;-75
2022/07/09 05:33:19;;;;;;;4.65;2.45;;;;;;;16.88;100.00;99320.78;4432862;32;20321;-74
2022/07/09 05:35:46;;;;;;;7.45;1.80;;;;;;;17.14;100.00;99328.75;4431769;32;20386;-72
2022/07/09 05:38:12;;;;;;;3.80;1.50;;;;;;;17.11;100.00;99326.59;4433518;32;20045;-71
2022/07/09 05:40:45;;;;;;;5.70;1.75;;;;;;;17.28;100.00;99351.47;4432229;32;20046;-72
2022/07/09 05:43:11;;;;;;;1.83;1.48;;;;;;;17.11;100.00;99323.88;4411216;32;20071;-72
2022/07/09 05:45:37;;;;;;;3.67;1.62;;;;;;;17.12;100.00;99309.16;4436185;32;20414;-73
2022/07/09 05:48:04;;;;;;;3.65;1.40;;;;;;;17.60;100.00;99356.31;4432234;32;20199;-72
2022/07/09 05:50:30;;;;;;;4.10;2.47;;;;;;;17.47;100.00;99348.03;4447230;32;20067;-71
2022/07/09 05:55:30;;;;;;;5.32;2.25;;;;;;;16.88;100.00;99331.66;4447036;32;20405;-72
2022/07/09 05:57:57;;;;;;;2.60;1.85;;;;;;;17.15;100.00;99330.34;4447847;32;20370;-73
2022/07/09 06:00:23;;;;;;;4.55;1.87;;;;;;;17.02;100.00;99302.75;4448571;32;20053;-73
2022/07/09 06:02:50;;;;;;;3.53;1.62;;;;;;;17.46;100.00;99362.75;4425521;32;20042;-73
2022/07/09 06:05:23;;;;;;;5.47;1.65;;;;;;;17.62;100.00;99361.50;4433285;32;20043;-73
2022/07/09 06:07:49;;;;;;;10.75;2.75;;;;;;;17.32;100.00;99351.72;4433285;32;20034;-74
2022/07/09 06:10:17;;;;;;;3.78;1.90;;;;;;;17.55;100.00;99355.56;4430794;32;20765;-74
2022/07/09 06:12:45;;;;;;;4.03;1.50;;;;;;;17.37;100.00;99325.25;4418341;32;20038;-73
2022/07/09 06:15:12;;;;;;;8.57;3.28;;;;;;;17.48;100.00;99336.03;4419149;32;20046;-73
2022/07/09 06:17:38;;;;;;;5.65;2.22;;;;;;;17.58;100.00;99334.03;4426591;32;20023;-72
2022/07/09 06:20:06;;;;;;;5.93;1.77;;;;;;;17.73;100.00;99333.03;4417338;32;20083;-73
2022/07/09 06:22:33;;;;;;;4.93;2.05;;;;;;;17.67;100.00;99326.03;4418368;32;20586;-73
2022/07/09 06:25:00;;;;;;;3.25;2.75;;;;;;;17.70;100.00;99320.00;4432771;32;20030;-73
2022/07/09 06:27:26;;;;;;;3.75;1.70;;;;;;;17.91;100.00;99325.25;4430522;32;20076;-72
2022/07/09 06:29:53;;;;;;;1.73;1.62;;;;;;;17.18;100.00;99297.13;4424627;32;20401;-73
2022/07/09 06:32:19;;;;;;;4.32;1.60;;;;;;;17.43;100.00;99310.47;4432486;32;20030;-72
2022/07/09 06:34:45;;;;;;;4.22;1.70;;;;;;;17.10;100.00;99267.84;4431453;32;20115;-74
2022/07/09 06:37:12;;;;;;;1.98;1.40;;;;;;;17.59;100.00;99307.59;4432053;32;20039;-72
2022/07/09 06:39:44;;;;;;;3.62;2.15;;;;;;;17.65;100.00;99278.44;4432394;32;20055;-72
2022/07/09 06:42:12;;;;;;;6.78;2.12;;;;;;;18.02;100.00;99315.03;4432637;32;20065;-72
2022/07/09 06:44:44;;;;;;;6.72;1.67;;;;;;;18.22;100.00;99314.78;4428140;32;20068;-73
2022/07/09 06:47:11;;;;;;;5.05;1.55;;;;;;;18.25;100.00;99277.94;4425807;32;20026;-72
2022/07/09 06:49:37;;;;;;;4.05;1.83;;;;;;;18.46;100.00;99314.72;4432570;32;20440;-72
2022/07/09 06:52:04;;;;;;;4.37;1.85;;;;;;;18.07;100.00;99307.59;4428374;32;20082;-73
2022/07/09 06:54:31;;;;;;;9.30;2.00;;;;;;;17.72;100.00;99274.22;4420775;32;20068;-74
2022/07/09 06:56:57;;;;;;;5.65;2.33;;;;;;;17.55;100.00;99235.78;4425622;32;20050;-73
2022/07/09 06:59:24;;;;;;;3.67;1.48;;;;;;;17.87;100.00;99313.25;4416414;32;20137;-72
2022/07/09 07:01:51;;;;;;;6.32;1.87;;;;;;;17.13;100.00;99267.25;4415983;32;20202;-73
2022/07/09 07:04:17;;;;;;;8.27;1.65;;;;;;;17.63;100.00;99276.00;4416966;32;20352;-72
2022/07/09 07:06:46;;;;;;;7.20;1.55;;;;;;;17.90;100.00;99277.31;4416881;32;20519;-72
2022/07/09 07:09:12;;;;;;;4.10;1.60;;;;;;;18.09;100.00;99272.72;4416948;32;20064;-72
2022/07/09 07:11:39;;;;;;;4.90;1.30;;;;;;;18.21;100.00;99269.53;4401979;32;20072;-72
2022/07/09 07:14:05;;;;;;;2.72;1.40;;;;;;;18.63;100.00;99303.25;4403180;32;20031;-72
2022/07/09 07:16:32;;;;;;;4.32;1.52;;;;;;;18.49;100.00;99265.03;4415942;32;20031;-73
2022/07/09 07:18:58;;;;;;;2.87;1.58;;;;;;;18.69;100.00;99252.97;4415989;32;20045;-74
2022/07/09 07:21:25;;;;;;;8.13;1.92;;;;;;;18.77;100.00;99254.22;4407110;32;20048;-71
2022/07/09 07:23:51;;;;;;;2.87;1.25;;;;;;;18.63;100.00;99269.72;4432290;32;20042;-72
2022/07/09 07:26:17;;;;;;;10.98;2.00;;;;;;;18.99;100.00;99300.00;4421982;32;20051;-72
2022/07/09 07:28:44;;;;;;;4.32;1.30;;;;;;;18.60;100.00;99248.50;4431840;32;20038;-72
2022/07/09 07:31:10;;;;;;;3.75;1.42;;;;;;;18.87;100.00;99294.19;4432259;32;20030;-72
2022/07/09 07:33:38;;;;;;;4.75;1.20;;;;;;;18.91;100.00;99297.13;4434259;32;20111;-71
2022/07/09 07:36:05;;;;;;;3.05;1.30;;;;;;;18.73;100.00;99264.13;4427509;32;20334;-73
2022/07/09 07:38:31;;;;;;;6.95;1.40;;;;;;;18.54;100.00;99266.06;4416732;32;20060;-72
2022/07/09 07:40:57;;;;;;;6.10;2.30;;;;;;;18.64;100.00;99293.19;4405436;32;20107;-74
2022/07/09 07:43:24;;;;;;;8.57;2.28;;;;;;;18.51;100.00;99287.34;4418493;32;20046;-71
2022/07/09 07:45:50;;;;;;;3.95;1.90;;;;;;;18.60;100.00;99254.75;4405234;32;20072;-72
2022/07/09 07:48:16;;;;;;;3.87;1.50;;;;;;;19.14;100.00;99289.91;4404091;32;20099;-72
2022/07/09 07:50:43;;;;;;;7.25;1.62;;;;;;;19.21;100.00;99285.69;4419880;32;20471;-72
2022/07/09 07:53:09;;;;;;;3.35;1.98;;;;;;;19.18;100.00;99267.19;4417349;32;20043;-75
2022/07/09 07:55:36;;;;;;;2.00;1.35;;;;;;;19.23;100.00;99245.25;4419143;32;20082;-73
2022/07/09 07:58:02;;;;;;;4.57;1.20;;;;;;;19.24;100.00;99287.81;4418985;32;20597;-72
2022/07/09 08:00:29;;;;;;;3.10;1.25;;;;;;;19.43;100.00;99286.91;4418028;32;20052;-74
2022/07/09 08:02:55;;;;;;;5.62;1.20;;;;;;;18.68;100.00;99272.38;4417492;32;20050;-73
2022/07/09 08:05:22;;;;;;;3.03;1.55;;;;;;;19.05;100.00;99265.22;4419369;32;20042;-72
2022/07/09 08:07:48;;;;;;;4.62;2.00;;;;;;;19.19;100.00;99254.34;4418912;32;20050;-73
2022/07/09 08:10:15;;;;;;;4.18;1.65;;;;;;;19.32;100.00;99280.03;4419000;32;20458;-72
2022/07/09 08:12:41;;;;;;;6.05;1.40;;;;;;;18.90;100.00;99243.69;4419058;32;20328;-73
2022/07/09 08:15:07;;;;;;;3.92;1.27;;;;;;;18.83;100.00;99247.56;4418198;32;20466;-73
2022/07/09 08:17:34;;;;;;;2.20;1.02;;;;;;;18.75;100.00;99256.44;4417625;32;20046;-74
2022/07/09 08:20:00;;;;;;;7.40;1.50;;;;;;;19.18;100.00;99245.34;4418022;32;20046;-72
2022/07/09 08:22:27;;;;;;;3.30;2.28;;;;;;;19.09;100.00;99247.16;4422848;32;20112;-73
2022/07/09 08:24:53;;;;;;;3.53;2.37;;;;;;;19.67;100.00;99269.53;4417087;32;20056;-74
2022/07/09 08:27:19;;;;;;;3.83;2.78;;;;;;;19.09;100.00;99277.16;4417948;32;20042;-73
2022/07/09 08:29:48;;;;;;;3.47;1.95;;;;;;;19.19;100.00;99277.00;4431313;32;20038;-72
2022/07/09 08:32:15;;;;;;;5.32;1.85;;;;;;;18.90;100.00;99273.69;4433706;32;20353;-71
2022/07/09 08:34:42;;;;;;;7.62;1.98;;;;;;;19.17;100.00;99279.19;4433630;32;20063;-72
2022/07/09 08:37:08;;;;;;;6.25;1.55;;;;;;;19.12;100.00;99286.69;4433861;32;20060;-72
2022/07/09 08:39:34;;;;;;;5.72;1.75;;;;;;;19.02;100.00;99260.41;4433257;32;20373;-73
2022/07/09 08:42:03;;;;;;;9.45;1.80;;;;;;;18.94;100.00;99269.25;4429302;32;20034;-73
2022/07/09 08:44:33;;;;;;;1.25;1.05;;;;;;;19.17;100.00;99279.19;4426057;32;20030;-73
2022/07/09 08:47:01;;;;;;;10.32;2.33;;;;;;;18.70;100.00;99248.34;4422268;32;20066;-72
2022/07/09 08:49:28;;;;;;;4.18;1.80;;;;;;;19.21;100.00;99291.16;4426636;32;20057;-72
2022/07/09 08:51:56;;;;;;;4.37;2.50;;;;;;;19.11;100.00;99250.38;4427713;32;20034;-72
2022/07/09 08:54:23;;;;;;;6.22;2.20;;;;;;;19.01;100.00;99239.66;4421199;32;20050;-73
2022/07/09 08:56:50;;;;;;;2.90;2.40;;;;;;;18.73;100.00;99214.19;4417628;32;20395;-73
2022/07/09 08:59:17;;;;;;;3.53;1.35;;;;;;;18.48;100.00;99238.87;4417312;32;20062;-73
2022/07/09 09:01:44;;;;;;;2.95;1.50;;;;;;;18.91;100.00;99231.66;4418325;32;20411;-73
2022/07/09 09:04:10;;;;;;;1.67;1.58;;;;;;;19.18;100.00;99274.56;4417710;32;20046;-75
2022/07/09 09:06:39;;;;;;;2.70;1.77;;;;;;;18.95;100.00;99225.28;4426070;32;20438;-73
2022/07/09 09:09:10;;;;;;;2.35;1.50;;;;;;;19.23;100.00;99261.63;4418409;32;20056;-72
2022/07/09 09:11:37;;;;;;;4.65;1.37;;;;;;;19.34;100.00;99262.25;4417616;32;20203;-72
2022/07/09 09:14:03;;;;;;;9.25;2.22;;;;;;;19.21;100.00;99272.03;4429497;32;20034;-72
2022/07/09 09:16:30;;;;;;;1.55;1.45;;;;;;;19.05;100.00;99222.38;4427468;32;20058;-71
2022/07/09 09:18:56;;;;;;;8.25;1.83;;;;;;;19.36;100.00;99260.03;4421286;32;20103;-72
2022/07/09 09:21:24;;;;;;;4.72;1.73;;;;;;;19.46;100.00;99220.78;4427446;32;20359;-74
2022/07/09 09:23:55;;;;;;;6.80;1.55;;;;;;;19.21;100.00;99272.03;4433235;32;20038;-72
2022/07/09 09:26:27;;;;;;;5.85;1.62;;;;;;;18.96;100.00;99224.19;4421297;32;20086;-72
2022/07/09 09:28:59;;;;;;;4.57;1.37;;;;;;;19.07;100.00;99243.91;4428132;32;20087;-72
2022/07/09 09:31:26;;;;;;;1.60;1.25;;;;;;;19.26;100.00;99243.00;4417767;32;20058;-72
2022/07/09 09:33:56;;;;;;;2.70;1.42;;;;;;;19.62;100.00;99245.06;4417033;32;20035;-72
2022/07/09 09:36:35;;;;;;;2.03;1.87;;;;;;;19.35;100.00;99246.66;4417494;32;20427;-72
2022/07/09 09:39:21;;;;;;;5.37;1.37;;;;;;;19.51;100.00;99207.00;4416274;32;20038;-73
2022/07/09 09:41:55;;;;;;;3.03;1.30;;;;;;;19.49;100.00;99231.09;4417520;32;20042;-72
2022/07/09 09:44:26;;;;;;;3.78;1.60;;;;;;;19.30;100.00;99205.81;4417081;32;20027;-72
2022/07/09 09:46:53;;;;;;;5.85;1.80;;;;;;;19.39;100.00;99193.09;4416373;32;20046;-72
2022/07/09 09:49:20;;;;;;;6.18;1.62;;;;;;;19.85;100.00;99238.59;4417001;32;20038;-73
2022/07/09 09:51:49;;;;;;;1.85;1.05;;;;;;;19.73;100.00;99202.75;4416233;32;20368;-74
2022/07/09 09:54:18;;;;;;;6.75;1.30;;;;;;;19.80;100.00;99191.44;4416374;32;20371;-72
2022/07/09 09:56:45;;;;;;;3.15;1.30;;;;;;;20.02;100.00;99226.19;4417243;32;20050;-71
2022/07/09 09:59:12;;;;;;;2.47;1.20;;;;;;;20.05;100.00;99222.84;4416888;32;20046;-71
2022/07/09 10:01:40;;;;;;;4.45;1.20;;;;;;;20.18;100.00;99235.66;4416986;32;20438;-71
2022/07/09 10:04:08;;;;;;;1.73;1.30;;;;;;;20.04;100.00;99229.44;4403202;32;20439;-73
2022/07/09 10:06:34;;;;;;;4.20;1.12;;;;;;;19.77;100.00;99225.66;4417149;32;20034;-71
2022/07/09 10:09:07;;;;;;;2.80;1.05;;;;;;;19.40;100.00;99205.63;4417014;32;20381;-71
2022/07/09 10:11:45;;;;;;;1.92;1.42;;;;;;;19.68;100.00;99222.00;4402801;32;20042;-71
2022/07/09 10:14:33;;;;;;;3.15;1.42;;;;;;;20.05;100.00;99201.00;4416821;32;20068;-71
2022/07/09 10:17:14;;;;;;;6.12;1.17;;;;;;;19.95;100.00;99194.63;4417028;32;20359;-71
2022/07/09 10:19:57;;;;;;;1.52;1.42;;;;;;;20.22;100.00;99192.94;4417074;32;20042;-73
2022/07/09 10:22:41;;;;;;;5.62;1.08;;;;;;;20.43;100.00;99204.19;4420613;32;20072;-72
2022/07/09 10:25:09;;;;;;;3.22;1.30;;;;;;;19.95;100.00;99227.44;4432106;32;20097;-72
2022/07/09 10:27:46;;;;;;;3.20;1.40;;;;;;;19.85;100.00;99183.94;4428431;32;20038;-74
2022/07/09 10:30:26;;;;;;;4.65;1.23;;;;;;;19.92;100.00;99206.19;4426349;32;20233;-72
2022/07/09 10:33:09;;;;;;;1.62;0.95;;;;;;;19.88;100.00;99221.59;4421769;32;20038;-72
2022/07/09 10:36:14;;;;;;;7.97;1.25;;;;;;;20.14;100.00;99212.81;4428376;32;20046;-74
2022/07/09 10:38:57;;;;;;;9.60;1.08;;;;;;;20.56;100.00;99210.69;4432606;32;20060;-73
2022/07/09 10:41:24;;;;;;;1.05;1.05;;;;;;;20.35;100.00;99215.06;4429923;32;20399;-72
2022/07/09 10:43:51;;;;;;;3.37;1.37;;;;;;;20.57;100.00;99204.12;4432642;32;20047;-73
2022/07/09 10:46:18;;;;;;;3.22;1.33;;;;;;;20.88;100.00;99203.34;4432024;32;20030;-72
2022/07/09 10:48:46;;;;;;;8.25;1.40;;;;;;;20.44;100.00;99214.00;4417998;32;20041;-72
2022/07/09 10:51:20;;;;;;;3.40;1.20;;;;;;;20.72;100.00;99213.09;4432246;32;20063;-73
2022/07/09 10:53:47;;;;;;;6.20;1.40;;;;;;;20.82;100.00;99207.34;4426601;32;20068;-72
2022/07/09 10:56:35;;;;;;;2.47;1.42;;;;;;;20.43;100.00;99176.03;4428663;32;20034;-73
2022/07/09 10:59:04;;;;;;;2.22;1.52;;;;;;;20.34;100.00;99211.50;4437343;32;20038;-70
2022/07/09 11:01:31;;;;;;;2.20;1.02;;;;;;;20.30;100.00;99233.19;4436782;32;20051;-72
2022/07/09 11:03:58;;;;;;;8.90;1.08;;;;;;;20.37;100.00;99215.56;4440183;32;20378;-71
2022/07/09 11:06:29;;;;;;;2.47;1.75;;;;;;;20.16;100.00;99226.97;4416668;32;20046;-72
2022/07/09 11:08:56;;;;;;;5.72;1.40;;;;;;;20.48;100.00;99211.44;4434509;32;20063;-72
2022/07/09 11:11:23;;;;;;;2.00;1.12;;;;;;;20.76;100.00;99167.56;4431877;32;20030;-73
2022/07/09 11:13:51;;;;;;;2.10;1.55;;;;;;;21.09;100.00;99169.97;4426629;32;20078;-73
2022/07/09 11:16:26;;;;;;;7.12;1.45;;;;;;;21.42;100.00;99211.47;4425966;32;20086;-71
2022/07/09 11:18:53;;;;;;;4.15;1.58;;;;;;;21.18;100.00;99162.59;4418827;32;20072;-71
2022/07/09 11:21:24;;;;;;;2.70;1.50;;;;;;;21.66;98.82;99222.03;4418793;32;20038;-72
2022/07/09 11:23:50;;;;;;;5.65;0.82;;;;;;;21.66;95.71;99216.56;4418698;32;20052;-71
2022/07/09 11:26:17;;;;;;;1.70;1.35;;;;;;;21.01;94.81;99229.84;4417329;32;20055;-71
2022/07/09 11:28:44;;;;;;;11.48;3.03;;;;;;;21.11;92.85;99186.88;4418417;32;20068;-71